sensor_id;sensor_type;location;lat;lon;timestamp;temperature;humidity
25871;DHT22;13689;48.590;7.752;2022-07-29T00:00:05;25.20;47.30
25871;DHT22;13689;48.590;7.752;2022-07-29T00:02:31;25.10;47.40
25871;DHT22;13689;48.590;7.752;2022-07-29T00:04:57;25.10;47.50
25871;DHT22;13689;48.590;7.752;2022-07-29T00:07:23;25.10;47.50
25871;DHT22;13689;48.590;7.752;2022-07-29T00:09:49;25.10;47.60
25871;DHT22;13689;48.590;7.752;2022-07-29T00:12:14;25.00;47.70
25871;DHT22;13689;48.590;7.752;2022-07-29T00:14:40;25.00;47.90
25871;DHT22;13689;48.590;7.752;2022-07-29T00:17:06;24.90;47.80
25871;DHT22;13689;48.590;7.752;2022-07-29T00:19:31;24.90;47.90
25871;DHT22;13689;48.590;7.752;2022-07-29T00:21:57;24.90;47.90
25871;DHT22;13689;48.590;7.752;2022-07-29T00:24:22;24.90;47.90
25871;DHT22;13689;48.590;7.752;2022-07-29T00:26:48;24.90;47.90
25871;DHT22;13689;48.590;7.752;2022-07-29T00:29:13;24.90;48.00
25871;DHT22;13689;48.590;7.752;2022-07-29T00:31:39;24.80;47.90
25871;DHT22;13689;48.590;7.752;2022-07-29T00:34:05;24.80;47.90
25871;DHT22;13689;48.590;7.752;2022-07-29T00:36:31;24.80;47.80
25871;DHT22;13689;48.590;7.752;2022-07-29T00:38:57;24.80;47.80
25871;DHT22;13689;48.590;7.752;2022-07-29T00:41:23;24.70;47.80
25871;DHT22;13689;48.590;7.752;2022-07-29T00:43:48;24.70;47.80
25871;DHT22;13689;48.590;7.752;2022-07-29T00:46:14;24.70;47.80
25871;DHT22;13689;48.590;7.752;2022-07-29T00:48:39;24.70;48.20
25871;DHT22;13689;48.590;7.752;2022-07-29T00:51:06;24.70;47.80
25871;DHT22;13689;48.590;7.752;2022-07-29T00:53:34;24.60;47.90
25871;DHT22;13689;48.590;7.752;2022-07-29T00:56:00;24.60;47.80
25871;DHT22;13689;48.590;7.752;2022-07-29T00:58:26;24.60;47.90
25871;DHT22;13689;48.590;7.752;2022-07-29T01:00:52;24.60;47.90
25871;DHT22;13689;48.590;7.752;2022-07-29T01:03:18;24.60;47.90
25871;DHT22;13689;48.590;7.752;2022-07-29T01:05:45;24.60;48.00
25871;DHT22;13689;48.590;7.752;2022-07-29T01:08:13;24.50;48.00
25871;DHT22;13689;48.590;7.752;2022-07-29T01:10:40;24.50;48.60
25871;DHT22;13689;48.590;7.752;2022-07-29T01:13:07;24.50;48.10
25871;DHT22;13689;48.590;7.752;2022-07-29T01:15:36;24.50;48.30
25871;DHT22;13689;48.590;7.752;2022-07-29T01:18:08;24.50;48.30
25871;DHT22;13689;48.590;7.752;2022-07-29T01:29:12;24.40;48.60
25871;DHT22;13689;48.590;7.752;2022-07-29T01:32:01;24.30;48.60
25871;DHT22;13689;48.590;7.752;2022-07-29T01:37:29;24.30;48.90
25871;DHT22;13689;48.590;7.752;2022-07-29T01:39:57;24.30;49.20
25871;DHT22;13689;48.590;7.752;2022-07-29T01:42:39;24.30;49.30
25871;DHT22;13689;48.590;7.752;2022-07-29T01:50:20;24.20;50.00
25871;DHT22;13689;48.590;7.752;2022-07-29T01:52:56;24.20;50.30
25871;DHT22;13689;48.590;7.752;2022-07-29T01:55:27;24.20;50.60
25871;DHT22;13689;48.590;7.752;2022-07-29T01:57:55;24.10;50.80
25871;DHT22;13689;48.590;7.752;2022-07-29T02:00:22;24.00;51.10
25871;DHT22;13689;48.590;7.752;2022-07-29T02:02:49;24.00;51.30
25871;DHT22;13689;48.590;7.752;2022-07-29T02:05:17;24.00;51.50
25871;DHT22;13689;48.590;7.752;2022-07-29T02:07:46;23.90;51.60
25871;DHT22;13689;48.590;7.752;2022-07-29T02:10:13;23.90;51.90
25871;DHT22;13689;48.590;7.752;2022-07-29T02:12:42;23.90;52.10
25871;DHT22;13689;48.590;7.752;2022-07-29T02:15:09;23.90;52.20
25871;DHT22;13689;48.590;7.752;2022-07-29T02:17:41;23.90;52.40
25871;DHT22;13689;48.590;7.752;2022-07-29T02:20:08;23.90;52.30
25871;DHT22;13689;48.590;7.752;2022-07-29T02:22:37;23.80;52.40
25871;DHT22;13689;48.590;7.752;2022-07-29T02:25:04;23.80;52.60
25871;DHT22;13689;48.590;7.752;2022-07-29T02:27:31;23.80;52.80
25871;DHT22;13689;48.590;7.752;2022-07-29T02:30:00;23.70;53.00
25871;DHT22;13689;48.590;7.752;2022-07-29T02:32:27;23.70;53.20
25871;DHT22;13689;48.590;7.752;2022-07-29T02:34:54;23.70;53.40
25871;DHT22;13689;48.590;7.752;2022-07-29T02:37:21;23.70;53.50
25871;DHT22;13689;48.590;7.752;2022-07-29T02:39:48;23.70;53.60
25871;DHT22;13689;48.590;7.752;2022-07-29T02:42:17;23.70;53.70
25871;DHT22;13689;48.590;7.752;2022-07-29T02:44:44;23.60;53.90
25871;DHT22;13689;48.590;7.752;2022-07-29T02:50:02;23.60;54.20
25871;DHT22;13689;48.590;7.752;2022-07-29T02:52:39;23.60;54.20
25871;DHT22;13689;48.590;7.752;2022-07-29T02:55:19;23.60;54.30
25871;DHT22;13689;48.590;7.752;2022-07-29T02:57:58;23.60;54.40
25871;DHT22;13689;48.590;7.752;2022-07-29T03:00:28;23.50;54.30
25871;DHT22;13689;48.590;7.752;2022-07-29T03:02:56;23.50;54.40
25871;DHT22;13689;48.590;7.752;2022-07-29T03:05:24;23.50;54.40
25871;DHT22;13689;48.590;7.752;2022-07-29T03:07:55;23.50;54.50
25871;DHT22;13689;48.590;7.752;2022-07-29T03:10:24;23.50;54.50
25871;DHT22;13689;48.590;7.752;2022-07-29T03:12:51;23.50;54.70
25871;DHT22;13689;48.590;7.752;2022-07-29T03:15:18;23.50;54.80
25871;DHT22;13689;48.590;7.752;2022-07-29T03:17:44;23.40;54.80
25871;DHT22;13689;48.590;7.752;2022-07-29T03:20:12;23.40;54.80
25871;DHT22;13689;48.590;7.752;2022-07-29T03:22:40;23.40;54.90
25871;DHT22;13689;48.590;7.752;2022-07-29T03:25:17;23.40;54.90
25871;DHT22;13689;48.590;7.752;2022-07-29T03:27:43;23.40;55.00
25871;DHT22;13689;48.590;7.752;2022-07-29T03:30:10;23.40;55.00
25871;DHT22;13689;48.590;7.752;2022-07-29T03:32:36;23.40;55.10
25871;DHT22;13689;48.590;7.752;2022-07-29T03:35:03;23.40;55.10
25871;DHT22;13689;48.590;7.752;2022-07-29T03:37:29;23.30;55.20
25871;DHT22;13689;48.590;7.752;2022-07-29T03:40:00;23.30;55.30
25871;DHT22;13689;48.590;7.752;2022-07-29T03:42:30;23.30;55.40
25871;DHT22;13689;48.590;7.752;2022-07-29T03:44:57;23.30;55.50
25871;DHT22;13689;48.590;7.752;2022-07-29T03:47:26;23.30;55.60
25871;DHT22;13689;48.590;7.752;2022-07-29T03:49:59;23.30;55.60
25871;DHT22;13689;48.590;7.752;2022-07-29T03:52:25;23.20;55.60
25871;DHT22;13689;48.590;7.752;2022-07-29T03:54:52;23.20;55.60
25871;DHT22;13689;48.590;7.752;2022-07-29T03:57:20;23.20;55.60
25871;DHT22;13689;48.590;7.752;2022-07-29T03:59:49;23.20;55.70
25871;DHT22;13689;48.590;7.752;2022-07-29T04:02:17;23.20;55.70
25871;DHT22;13689;48.590;7.752;2022-07-29T04:04:43;23.20;55.70
25871;DHT22;13689;48.590;7.752;2022-07-29T04:07:12;23.10;55.80
25871;DHT22;13689;48.590;7.752;2022-07-29T04:09:38;23.10;55.90
25871;DHT22;13689;48.590;7.752;2022-07-29T04:12:04;23.20;55.80
25871;DHT22;13689;48.590;7.752;2022-07-29T04:14:31;23.10;55.80
25871;DHT22;13689;48.590;7.752;2022-07-29T04:16:57;23.10;56.00
25871;DHT22;13689;48.590;7.752;2022-07-29T04:19:23;23.10;56.00
25871;DHT22;13689;48.590;7.752;2022-07-29T04:21:48;23.10;56.10
25871;DHT22;13689;48.590;7.752;2022-07-29T04:24:14;23.10;56.20
25871;DHT22;13689;48.590;7.752;2022-07-29T04:26:40;23.10;56.20
25871;DHT22;13689;48.590;7.752;2022-07-29T04:29:05;23.10;56.40
25871;DHT22;13689;48.590;7.752;2022-07-29T04:31:31;23.10;56.60
25871;DHT22;13689;48.590;7.752;2022-07-29T04:33:57;23.10;56.80
25871;DHT22;13689;48.590;7.752;2022-07-29T04:36:22;23.10;56.90
25871;DHT22;13689;48.590;7.752;2022-07-29T04:38:48;23.10;56.90
25871;DHT22;13689;48.590;7.752;2022-07-29T04:41:14;23.10;56.90
25871;DHT22;13689;48.590;7.752;2022-07-29T04:43:39;23.10;56.90
25871;DHT22;13689;48.590;7.752;2022-07-29T04:46:06;23.10;56.90
25871;DHT22;13689;48.590;7.752;2022-07-29T04:48:32;23.10;57.50
25871;DHT22;13689;48.590;7.752;2022-07-29T04:50:58;23.10;56.90
25871;DHT22;13689;48.590;7.752;2022-07-29T04:53:24;23.20;57.00
25871;DHT22;13689;48.590;7.752;2022-07-29T04:55:50;23.20;56.80
25871;DHT22;13689;48.590;7.752;2022-07-29T04:58:15;23.20;56.80
25871;DHT22;13689;48.590;7.752;2022-07-29T05:00:41;23.20;56.90
25871;DHT22;13689;48.590;7.752;2022-07-29T05:03:06;23.20;56.80
25871;DHT22;13689;48.590;7.752;2022-07-29T05:05:32;23.20;56.80
25871;DHT22;13689;48.590;7.752;2022-07-29T05:07:58;23.20;56.80
25871;DHT22;13689;48.590;7.752;2022-07-29T05:10:24;23.30;56.80
25871;DHT22;13689;48.590;7.752;2022-07-29T05:12:49;23.30;56.60
25871;DHT22;13689;48.590;7.752;2022-07-29T05:15:15;23.30;56.50
25871;DHT22;13689;48.590;7.752;2022-07-29T05:17:43;23.30;56.50
25871;DHT22;13689;48.590;7.752;2022-07-29T05:20:09;23.30;56.50
25871;DHT22;13689;48.590;7.752;2022-07-29T05:22:35;23.40;56.40
25871;DHT22;13689;48.590;7.752;2022-07-29T05:25:00;23.40;56.30
25871;DHT22;13689;48.590;7.752;2022-07-29T05:27:26;23.40;56.10
25871;DHT22;13689;48.590;7.752;2022-07-29T05:29:51;23.50;55.90
25871;DHT22;13689;48.590;7.752;2022-07-29T05:32:17;23.50;55.80
25871;DHT22;13689;48.590;7.752;2022-07-29T05:34:43;23.60;55.60
25871;DHT22;13689;48.590;7.752;2022-07-29T05:37:08;23.70;55.40
25871;DHT22;13689;48.590;7.752;2022-07-29T05:39:34;23.80;55.10
25871;DHT22;13689;48.590;7.752;2022-07-29T05:41:59;23.80;54.80
25871;DHT22;13689;48.590;7.752;2022-07-29T05:44:25;24.00;54.60
25871;DHT22;13689;48.590;7.752;2022-07-29T05:46:51;24.10;54.20
25871;DHT22;13689;48.590;7.752;2022-07-29T05:49:16;24.20;54.00
25871;DHT22;13689;48.590;7.752;2022-07-29T05:51:42;24.20;53.60
25871;DHT22;13689;48.590;7.752;2022-07-29T05:54:08;24.30;53.40
25871;DHT22;13689;48.590;7.752;2022-07-29T05:56:36;24.40;53.20
25871;DHT22;13689;48.590;7.752;2022-07-29T05:59:02;24.70;52.80
25871;DHT22;13689;48.590;7.752;2022-07-29T06:01:28;25.00;52.40
25871;DHT22;13689;48.590;7.752;2022-07-29T06:03:54;25.30;51.90
25871;DHT22;13689;48.590;7.752;2022-07-29T06:06:19;25.40;51.30
25871;DHT22;13689;48.590;7.752;2022-07-29T06:08:45;25.50;51.10
25871;DHT22;13689;48.590;7.752;2022-07-29T06:11:11;25.50;50.80
25871;DHT22;13689;48.590;7.752;2022-07-29T06:13:36;25.50;50.70
25871;DHT22;13689;48.590;7.752;2022-07-29T06:16:02;25.40;50.60
25871;DHT22;13689;48.590;7.752;2022-07-29T06:18:28;25.40;50.30
25871;DHT22;13689;48.590;7.752;2022-07-29T06:20:54;25.30;50.20
25871;DHT22;13689;48.590;7.752;2022-07-29T06:23:20;25.10;50.00
25871;DHT22;13689;48.590;7.752;2022-07-29T06:25:46;24.90;50.20
25871;DHT22;13689;48.590;7.752;2022-07-29T06:28:11;24.80;50.50
25871;DHT22;13689;48.590;7.752;2022-07-29T06:30:38;24.60;50.30
25871;DHT22;13689;48.590;7.752;2022-07-29T06:33:04;24.70;50.60
25871;DHT22;13689;48.590;7.752;2022-07-29T06:35:32;24.80;50.30
25871;DHT22;13689;48.590;7.752;2022-07-29T06:37:58;24.80;50.30
25871;DHT22;13689;48.590;7.752;2022-07-29T06:40:23;24.80;50.10
25871;DHT22;13689;48.590;7.752;2022-07-29T06:43:07;24.70;50.40
25871;DHT22;13689;48.590;7.752;2022-07-29T06:45:36;24.90;50.60
25871;DHT22;13689;48.590;7.752;2022-07-29T06:48:02;25.10;50.20
25871;DHT22;13689;48.590;7.752;2022-07-29T06:50:27;25.30;50.10
25871;DHT22;13689;48.590;7.752;2022-07-29T06:52:53;25.50;49.70
25871;DHT22;13689;48.590;7.752;2022-07-29T06:55:18;25.70;49.50
25871;DHT22;13689;48.590;7.752;2022-07-29T06:57:45;25.70;49.30
25871;DHT22;13689;48.590;7.752;2022-07-29T07:00:12;25.80;49.40
25871;DHT22;13689;48.590;7.752;2022-07-29T07:02:38;25.70;49.40
25871;DHT22;13689;48.590;7.752;2022-07-29T07:05:04;25.70;49.30
25871;DHT22;13689;48.590;7.752;2022-07-29T07:07:31;25.70;49.30
25871;DHT22;13689;48.590;7.752;2022-07-29T07:09:56;25.70;49.30
25871;DHT22;13689;48.590;7.752;2022-07-29T07:12:22;25.70;48.90
25871;DHT22;13689;48.590;7.752;2022-07-29T07:14:48;25.90;48.90
25871;DHT22;13689;48.590;7.752;2022-07-29T07:17:13;25.90;48.70
25871;DHT22;13689;48.590;7.752;2022-07-29T07:19:39;26.00;48.60
25871;DHT22;13689;48.590;7.752;2022-07-29T07:22:04;26.00;48.40
25871;DHT22;13689;48.590;7.752;2022-07-29T07:24:30;26.10;48.50
25871;DHT22;13689;48.590;7.752;2022-07-29T07:26:56;26.50;48.50
25871;DHT22;13689;48.590;7.752;2022-07-29T07:29:21;26.70;48.00
25871;DHT22;13689;48.590;7.752;2022-07-29T07:31:47;26.90;47.80
25871;DHT22;13689;48.590;7.752;2022-07-29T07:34:13;26.90;47.50
25871;DHT22;13689;48.590;7.752;2022-07-29T07:36:38;26.90;47.20
25871;DHT22;13689;48.590;7.752;2022-07-29T07:39:04;27.20;47.00
25871;DHT22;13689;48.590;7.752;2022-07-29T07:41:30;27.40;46.80
25871;DHT22;13689;48.590;7.752;2022-07-29T07:43:56;27.60;46.50
25871;DHT22;13689;48.590;7.752;2022-07-29T07:46:22;27.50;46.40
25871;DHT22;13689;48.590;7.752;2022-07-29T07:48:47;27.50;46.50
25871;DHT22;13689;48.590;7.752;2022-07-29T07:51:13;27.50;46.70
25871;DHT22;13689;48.590;7.752;2022-07-29T07:53:38;27.70;46.50
25871;DHT22;13689;48.590;7.752;2022-07-29T07:56:04;28.00;45.90
25871;DHT22;13689;48.590;7.752;2022-07-29T07:58:31;28.20;45.50
25871;DHT22;13689;48.590;7.752;2022-07-29T08:00:57;28.60;45.10
25871;DHT22;13689;48.590;7.752;2022-07-29T08:03:23;29.00;44.50
25871;DHT22;13689;48.590;7.752;2022-07-29T08:05:48;29.00;44.30
25871;DHT22;13689;48.590;7.752;2022-07-29T08:08:16;29.00;44.00
25871;DHT22;13689;48.590;7.752;2022-07-29T08:10:42;28.70;44.20
25871;DHT22;13689;48.590;7.752;2022-07-29T08:13:22;28.40;44.50
25871;DHT22;13689;48.590;7.752;2022-07-29T08:15:49;28.20;44.80
25871;DHT22;13689;48.590;7.752;2022-07-29T08:18:23;28.10;44.90
25871;DHT22;13689;48.590;7.752;2022-07-29T08:20:50;28.20;45.00
25871;DHT22;13689;48.590;7.752;2022-07-29T08:23:15;28.90;44.40
25871;DHT22;13689;48.590;7.752;2022-07-29T08:25:41;29.50;43.30
25871;DHT22;13689;48.590;7.752;2022-07-29T08:28:07;29.80;42.60
25871;DHT22;13689;48.590;7.752;2022-07-29T08:30:33;29.90;42.40
25871;DHT22;13689;48.590;7.752;2022-07-29T08:32:59;30.30;42.00
25871;DHT22;13689;48.590;7.752;2022-07-29T08:35:25;30.70;41.30
25871;DHT22;13689;48.590;7.752;2022-07-29T08:37:51;30.60;40.90
25871;DHT22;13689;48.590;7.752;2022-07-29T08:40:17;30.50;40.70
25871;DHT22;13689;48.590;7.752;2022-07-29T08:42:43;31.00;40.30
25871;DHT22;13689;48.590;7.752;2022-07-29T08:45:09;31.20;39.10
25871;DHT22;13689;48.590;7.752;2022-07-29T08:47:35;31.30;38.20
25871;DHT22;13689;48.590;7.752;2022-07-29T08:50:06;31.70;38.10
25871;DHT22;13689;48.590;7.752;2022-07-29T08:52:36;32.10;37.50
25871;DHT22;13689;48.590;7.752;2022-07-29T08:55:02;32.50;36.90
25871;DHT22;13689;48.590;7.752;2022-07-29T08:57:28;32.10;36.50
25871;DHT22;13689;48.590;7.752;2022-07-29T08:59:54;31.60;36.80
25871;DHT22;13689;48.590;7.752;2022-07-29T09:02:21;31.20;37.10
25871;DHT22;13689;48.590;7.752;2022-07-29T09:04:48;30.90;37.30
25871;DHT22;13689;48.590;7.752;2022-07-29T09:07:15;30.50;37.50
25871;DHT22;13689;48.590;7.752;2022-07-29T09:09:42;30.40;37.60
25871;DHT22;13689;48.590;7.752;2022-07-29T09:12:11;30.40;37.90
25871;DHT22;13689;48.590;7.752;2022-07-29T09:14:38;30.90;37.60
25871;DHT22;13689;48.590;7.752;2022-07-29T09:17:03;31.70;36.50
25871;DHT22;13689;48.590;7.752;2022-07-29T09:19:30;32.20;36.00
25871;DHT22;13689;48.590;7.752;2022-07-29T09:21:58;32.70;35.30
25871;DHT22;13689;48.590;7.752;2022-07-29T09:24:40;33.10;34.90
25871;DHT22;13689;48.590;7.752;2022-07-29T09:27:17;33.40;34.40
25871;DHT22;13689;48.590;7.752;2022-07-29T09:30:05;33.50;34.00
25871;DHT22;13689;48.590;7.752;2022-07-29T09:32:55;33.30;33.90
25871;DHT22;13689;48.590;7.752;2022-07-29T09:35:23;33.50;33.70
25871;DHT22;13689;48.590;7.752;2022-07-29T09:37:50;33.60;33.50
25871;DHT22;13689;48.590;7.752;2022-07-29T09:40:21;33.70;33.20
25871;DHT22;13689;48.590;7.752;2022-07-29T09:42:47;33.30;33.00
25871;DHT22;13689;48.590;7.752;2022-07-29T09:45:30;32.90;33.70
25871;DHT22;13689;48.590;7.752;2022-07-29T09:47:56;32.90;34.10
25871;DHT22;13689;48.590;7.752;2022-07-29T09:50:38;33.10;34.00
25871;DHT22;13689;48.590;7.752;2022-07-29T09:53:04;33.40;33.60
25871;DHT22;13689;48.590;7.752;2022-07-29T09:55:30;33.80;33.00
25871;DHT22;13689;48.590;7.752;2022-07-29T09:58:18;34.20;32.70
25871;DHT22;13689;48.590;7.752;2022-07-29T10:00:45;34.50;31.90
25871;DHT22;13689;48.590;7.752;2022-07-29T10:03:17;34.80;31.60
25871;DHT22;13689;48.590;7.752;2022-07-29T10:05:43;34.90;31.20
25871;DHT22;13689;48.590;7.752;2022-07-29T10:08:11;34.90;30.50
25871;DHT22;13689;48.590;7.752;2022-07-29T10:10:42;34.30;30.70
25871;DHT22;13689;48.590;7.752;2022-07-29T10:13:10;33.50;31.70
25871;DHT22;13689;48.590;7.752;2022-07-29T10:15:38;33.80;31.40
25871;DHT22;13689;48.590;7.752;2022-07-29T10:18:07;33.90;30.90
25871;DHT22;13689;48.590;7.752;2022-07-29T10:20:34;34.00;30.70
25871;DHT22;13689;48.590;7.752;2022-07-29T10:23:00;34.50;30.30
25871;DHT22;13689;48.590;7.752;2022-07-29T10:25:26;35.00;30.10
25871;DHT22;13689;48.590;7.752;2022-07-29T10:27:53;34.70;29.70
25871;DHT22;13689;48.590;7.752;2022-07-29T10:30:23;34.40;29.90
25871;DHT22;13689;48.590;7.752;2022-07-29T10:44:13;33.00;30.90
25871;DHT22;13689;48.590;7.752;2022-07-29T10:46:40;32.90;31.00
25871;DHT22;13689;48.590;7.752;2022-07-29T10:49:22;32.70;31.20
25871;DHT22;13689;48.590;7.752;2022-07-29T10:52:16;32.70;31.30
25871;DHT22;13689;48.590;7.752;2022-07-29T10:54:45;32.70;31.40
25871;DHT22;13689;48.590;7.752;2022-07-29T11:05:06;32.30;31.50
25871;DHT22;13689;48.590;7.752;2022-07-29T11:07:32;32.20;31.50
25871;DHT22;13689;48.590;7.752;2022-07-29T11:15:13;32.00;31.70
25871;DHT22;13689;48.590;7.752;2022-07-29T11:20:41;32.00;31.80
25871;DHT22;13689;48.590;7.752;2022-07-29T11:23:34;31.80;31.80
25871;DHT22;13689;48.590;7.752;2022-07-29T11:26:14;31.70;32.00
25871;DHT22;13689;48.590;7.752;2022-07-29T11:31:45;31.60;32.10
25871;DHT22;13689;48.590;7.752;2022-07-29T11:39:30;31.50;32.20
25871;DHT22;13689;48.590;7.752;2022-07-29T11:45:13;31.50;32.40
25871;DHT22;13689;48.590;7.752;2022-07-29T11:47:47;31.30;32.50
25871;DHT22;13689;48.590;7.752;2022-07-29T11:50:15;31.30;32.60
25871;DHT22;13689;48.590;7.752;2022-07-29T11:52:44;31.20;32.70
25871;DHT22;13689;48.590;7.752;2022-07-29T11:55:17;31.10;32.90
25871;DHT22;13689;48.590;7.752;2022-07-29T12:00:35;30.90;33.30
25871;DHT22;13689;48.590;7.752;2022-07-29T12:03:05;30.80;33.50
25871;DHT22;13689;48.590;7.752;2022-07-29T12:08:05;30.70;33.90
25871;DHT22;13689;48.590;7.752;2022-07-29T12:10:31;30.70;33.90
25871;DHT22;13689;48.590;7.752;2022-07-29T12:12:57;30.70;34.10
25871;DHT22;13689;48.590;7.752;2022-07-29T12:15:23;30.70;34.20
25871;DHT22;13689;48.590;7.752;2022-07-29T12:17:49;30.70;34.30
25871;DHT22;13689;48.590;7.752;2022-07-29T12:20:26;30.70;34.60
25871;DHT22;13689;48.590;7.752;2022-07-29T12:22:52;30.70;34.70
25871;DHT22;13689;48.590;7.752;2022-07-29T12:25:19;30.60;34.70
25871;DHT22;13689;48.590;7.752;2022-07-29T12:27:45;30.60;35.00
25871;DHT22;13689;48.590;7.752;2022-07-29T12:30:15;30.60;35.30
25871;DHT22;13689;48.590;7.752;2022-07-29T12:32:46;30.50;35.90
25871;DHT22;13689;48.590;7.752;2022-07-29T12:35:16;30.50;36.30
25871;DHT22;13689;48.590;7.752;2022-07-29T12:37:45;30.60;36.50
25871;DHT22;13689;48.590;7.752;2022-07-29T12:40:14;30.60;36.60
25871;DHT22;13689;48.590;7.752;2022-07-29T12:45:35;30.60;36.80
25871;DHT22;13689;48.590;7.752;2022-07-29T12:48:01;30.60;37.00
25871;DHT22;13689;48.590;7.752;2022-07-29T12:50:28;30.70;37.10
25871;DHT22;13689;48.590;7.752;2022-07-29T12:52:53;30.80;37.00
25871;DHT22;13689;48.590;7.752;2022-07-29T12:55:44;30.90;36.40
25871;DHT22;13689;48.590;7.752;2022-07-29T12:58:33;30.90;36.00
25871;DHT22;13689;48.590;7.752;2022-07-29T13:01:08;30.90;35.80
25871;DHT22;13689;48.590;7.752;2022-07-29T13:09:03;31.10;35.10
25871;DHT22;13689;48.590;7.752;2022-07-29T13:11:41;31.10;35.20
25871;DHT22;13689;48.590;7.752;2022-07-29T13:14:13;31.00;35.30
25871;DHT22;13689;48.590;7.752;2022-07-29T13:17:15;31.00;35.90
25871;DHT22;13689;48.590;7.752;2022-07-29T13:19:49;31.10;35.30
25871;DHT22;13689;48.590;7.752;2022-07-29T13:22:22;31.10;35.20
25871;DHT22;13689;48.590;7.752;2022-07-29T13:24:59;31.10;35.20
25871;DHT22;13689;48.590;7.752;2022-07-29T13:27:29;31.10;35.50
25871;DHT22;13689;48.590;7.752;2022-07-29T13:29:56;31.00;35.70
25871;DHT22;13689;48.590;7.752;2022-07-29T13:32:23;31.10;35.70
25871;DHT22;13689;48.590;7.752;2022-07-29T13:34:50;31.00;35.80
25871;DHT22;13689;48.590;7.752;2022-07-29T13:37:16;31.10;35.90
25871;DHT22;13689;48.590;7.752;2022-07-29T13:39:44;31.10;35.70
25871;DHT22;13689;48.590;7.752;2022-07-29T13:42:10;31.00;35.60
25871;DHT22;13689;48.590;7.752;2022-07-29T13:44:39;31.00;35.40
25871;DHT22;13689;48.590;7.752;2022-07-29T13:47:05;31.00;35.40
25871;DHT22;13689;48.590;7.752;2022-07-29T13:49:31;30.90;35.50
25871;DHT22;13689;48.590;7.752;2022-07-29T13:51:57;31.00;35.70
25871;DHT22;13689;48.590;7.752;2022-07-29T13:54:23;30.90;35.60
25871;DHT22;13689;48.590;7.752;2022-07-29T13:56:50;30.90;35.50
25871;DHT22;13689;48.590;7.752;2022-07-29T13:59:15;30.90;35.40
25871;DHT22;13689;48.590;7.752;2022-07-29T14:01:41;30.90;35.60
25871;DHT22;13689;48.590;7.752;2022-07-29T14:04:08;30.80;35.70
25871;DHT22;13689;48.590;7.752;2022-07-29T14:06:34;30.80;35.40
25871;DHT22;13689;48.590;7.752;2022-07-29T14:09:00;30.90;35.30
25871;DHT22;13689;48.590;7.752;2022-07-29T14:11:26;31.00;35.00
25871;DHT22;13689;48.590;7.752;2022-07-29T14:13:51;30.90;34.70
25871;DHT22;13689;48.590;7.752;2022-07-29T14:16:17;30.90;34.60
25871;DHT22;13689;48.590;7.752;2022-07-29T14:18:42;31.00;34.60
25871;DHT22;13689;48.590;7.752;2022-07-29T14:21:08;31.00;34.20
25871;DHT22;13689;48.590;7.752;2022-07-29T14:23:34;30.90;33.80
25871;DHT22;13689;48.590;7.752;2022-07-29T14:26:00;30.90;33.70
25871;DHT22;13689;48.590;7.752;2022-07-29T14:28:53;30.80;33.40
25871;DHT22;13689;48.590;7.752;2022-07-29T14:31:19;30.80;33.20
25871;DHT22;13689;48.590;7.752;2022-07-29T14:33:45;30.70;33.00
25871;DHT22;13689;48.590;7.752;2022-07-29T14:36:11;30.70;32.90
25871;DHT22;13689;48.590;7.752;2022-07-29T14:38:39;30.70;32.70
25871;DHT22;13689;48.590;7.752;2022-07-29T14:41:06;30.70;33.00
25871;DHT22;13689;48.590;7.752;2022-07-29T14:43:33;30.80;33.10
25871;DHT22;13689;48.590;7.752;2022-07-29T14:46:00;30.80;33.00
25871;DHT22;13689;48.590;7.752;2022-07-29T14:48:26;30.80;33.00
25871;DHT22;13689;48.590;7.752;2022-07-29T14:50:55;30.80;33.10
25871;DHT22;13689;48.590;7.752;2022-07-29T14:53:22;30.80;33.10
25871;DHT22;13689;48.590;7.752;2022-07-29T14:55:48;30.80;32.60
25871;DHT22;13689;48.590;7.752;2022-07-29T14:58:14;30.70;32.00
25871;DHT22;13689;48.590;7.752;2022-07-29T15:00:40;30.60;31.90
25871;DHT22;13689;48.590;7.752;2022-07-29T15:03:06;30.60;31.70
25871;DHT22;13689;48.590;7.752;2022-07-29T15:05:35;30.60;31.70
25871;DHT22;13689;48.590;7.752;2022-07-29T15:08:02;30.60;32.00
25871;DHT22;13689;48.590;7.752;2022-07-29T15:10:28;30.50;32.20
25871;DHT22;13689;48.590;7.752;2022-07-29T15:12:54;30.50;32.60
25871;DHT22;13689;48.590;7.752;2022-07-29T15:15:20;30.60;32.50
25871;DHT22;13689;48.590;7.752;2022-07-29T15:17:45;30.50;32.40
25871;DHT22;13689;48.590;7.752;2022-07-29T15:20:11;30.50;32.60
25871;DHT22;13689;48.590;7.752;2022-07-29T15:22:37;30.50;33.40
25871;DHT22;13689;48.590;7.752;2022-07-29T15:25:04;30.40;34.10
25871;DHT22;13689;48.590;7.752;2022-07-29T15:27:30;30.30;34.70
25871;DHT22;13689;48.590;7.752;2022-07-29T15:29:56;30.40;35.10
25871;DHT22;13689;48.590;7.752;2022-07-29T15:32:22;30.40;35.30
25871;DHT22;13689;48.590;7.752;2022-07-29T15:34:48;30.40;35.40
25871;DHT22;13689;48.590;7.752;2022-07-29T15:37:14;30.50;35.60
25871;DHT22;13689;48.590;7.752;2022-07-29T15:39:39;30.40;35.70
25871;DHT22;13689;48.590;7.752;2022-07-29T15:42:05;30.40;35.90
25871;DHT22;13689;48.590;7.752;2022-07-29T15:44:31;30.40;35.90
25871;DHT22;13689;48.590;7.752;2022-07-29T15:46:57;30.40;35.80
25871;DHT22;13689;48.590;7.752;2022-07-29T15:49:37;30.40;35.70
25871;DHT22;13689;48.590;7.752;2022-07-29T15:52:21;30.40;35.50
25871;DHT22;13689;48.590;7.752;2022-07-29T15:54:48;30.30;35.40
25871;DHT22;13689;48.590;7.752;2022-07-29T15:57:14;30.30;35.50
25871;DHT22;13689;48.590;7.752;2022-07-29T15:59:39;30.30;35.60
25871;DHT22;13689;48.590;7.752;2022-07-29T16:02:08;30.20;35.70
25871;DHT22;13689;48.590;7.752;2022-07-29T16:04:33;30.20;35.90
25871;DHT22;13689;48.590;7.752;2022-07-29T16:06:59;30.10;35.90
25871;DHT22;13689;48.590;7.752;2022-07-29T16:09:25;30.10;35.80
25871;DHT22;13689;48.590;7.752;2022-07-29T16:11:51;30.00;35.70
25871;DHT22;13689;48.590;7.752;2022-07-29T16:14:18;29.90;35.80
25871;DHT22;13689;48.590;7.752;2022-07-29T16:16:44;29.90;36.10
25871;DHT22;13689;48.590;7.752;2022-07-29T16:19:10;29.90;36.40
25871;DHT22;13689;48.590;7.752;2022-07-29T16:21:36;29.80;36.70
25871;DHT22;13689;48.590;7.752;2022-07-29T16:24:03;29.70;37.10
25871;DHT22;13689;48.590;7.752;2022-07-29T16:26:29;29.70;37.60
25871;DHT22;13689;48.590;7.752;2022-07-29T16:28:55;29.60;37.80
25871;DHT22;13689;48.590;7.752;2022-07-29T16:31:22;29.50;38.00
25871;DHT22;13689;48.590;7.752;2022-07-29T16:33:51;29.50;38.10
25871;DHT22;13689;48.590;7.752;2022-07-29T16:36:17;29.40;38.20
25871;DHT22;13689;48.590;7.752;2022-07-29T16:38:44;29.30;38.30
25871;DHT22;13689;48.590;7.752;2022-07-29T16:41:09;29.20;38.50
25871;DHT22;13689;48.590;7.752;2022-07-29T16:43:38;29.20;38.70
25871;DHT22;13689;48.590;7.752;2022-07-29T16:46:09;29.10;38.60